Time;durP1;ratioP1;P1;durP2;ratioP2;P2;SDS_P1;SDS_P2;PMS_P1;PMS_P2;Temp;Humidity;BMP_temperature;BMP_pressure;BME280_temperature;BME280_humidity;BME280_pressure;Samples;Min_cycle;Max_cycle;Signal;HPM_P1;HPM_P2
2021/08/21 00:00:09;;;;;;;6.53;3.17;;;26.80;90.80;;;;;;5075680;28;20097;-49
2021/08/21 00:02:39;;;;;;;7.78;3.42;;;26.80;90.80;;;;;;5075354;28;20122;-46
2021/08/21 00:05:08;;;;;;;6.63;2.88;;;26.70;90.80;;;;;;5093289;28;20109;-46
2021/08/21 00:07:36;;;;;;;4.82;3.00;;;26.70;90.80;;;;;;5093464;28;20032;-46
2021/08/21 00:10:20;;;;;;;9.13;2.80;;;26.70;90.80;;;;;;5078025;28;20040;-46
2021/08/21 00:12:48;;;;;;;5.05;3.15;;;26.80;90.90;;;;;;5059271;28;20040;-47
2021/08/21 00:15:19;;;;;;;5.05;2.88;;;26.80;90.90;;;;;;5075465;28;20036;-46
2021/08/21 00:17:48;;;;;;;6.40;2.50;;;26.80;90.90;;;;;;5075341;28;20044;-46
2021/08/21 00:20:16;;;;;;;7.60;2.65;;;26.80;91.00;;;;;;5058783;28;20045;-46
2021/08/21 00:22:44;;;;;;;8.02;3.08;;;26.80;91.00;;;;;;5075543;28;20044;-46
2021/08/21 00:25:13;;;;;;;7.18;3.28;;;26.80;91.10;;;;;;5075495;28;20069;-46
2021/08/21 00:27:41;;;;;;;6.43;3.70;;;26.80;91.00;;;;;;5074990;28;20394;-46
2021/08/21 00:30:10;;;;;;;6.13;3.03;;;26.80;91.00;;;;;;5075050;28;20043;-46
2021/08/21 00:32:38;;;;;;;5.60;2.97;;;26.80;91.00;;;;;;5093056;28;20508;-46
2021/08/21 00:35:07;;;;;;;4.63;2.70;;;26.80;91.00;;;;;;5075121;28;20036;-46
2021/08/21 00:37:35;;;;;;;6.65;3.42;;;26.80;91.00;;;;;;5078462;28;20083;-48
2021/08/21 00:40:05;;;;;;;6.22;3.60;;;26.80;91.10;;;;;;5078840;28;20044;-46
2021/08/21 00:42:33;;;;;;;6.20;2.50;;;26.80;91.10;;;;;;5062278;28;20564;-46
2021/08/21 00:45:02;;;;;;;4.95;2.80;;;26.80;91.10;;;;;;5078333;28;20044;-46
2021/08/21 00:47:30;;;;;;;7.18;3.60;;;26.80;91.10;;;;;;5045496;28;20044;-46
2021/08/21 00:49:57;;;;;;;6.70;2.70;;;26.80;91.10;;;;;;5078694;28;20047;-47
2021/08/21 00:52:30;;;;;;;3.53;2.30;;;26.80;91.20;;;;;;5096373;28;20097;-46
2021/08/21 00:54:58;;;;;;;5.85;2.90;;;26.80;91.20;;;;;;5078478;28;20040;-47
2021/08/21 00:57:27;;;;;;;5.20;3.03;;;26.80;91.10;;;;;;5078333;28;20051;-46
2021/08/21 00:59:56;;;;;;;8.23;2.97;;;26.80;91.20;;;;;;5078431;28;20048;-46
2021/08/21 01:02:24;;;;;;;5.57;2.80;;;26.80;91.20;;;;;;5078357;28;20048;-46
2021/08/21 01:04:55;;;;;;;3.65;2.20;;;26.80;91.20;;;;;;5078609;28;20474;-50
2021/08/21 01:07:29;;;;;;;4.82;2.42;;;26.80;91.20;;;;;;5061400;28;20379;-46
2021/08/21 01:10:04;;;;;;;4.15;2.67;;;26.70;91.20;;;;;;5061635;28;20037;-47
2021/08/21 01:12:35;;;;;;;4.93;2.95;;;26.80;91.20;;;;;;5078329;28;20036;-47
2021/08/21 01:15:04;;;;;;;4.25;2.70;;;26.80;91.20;;;;;;5061591;28;20044;-47
2021/08/21 01:17:35;;;;;;;5.15;2.38;;;26.80;91.20;;;;;;5077955;28;20409;-46
2021/08/21 01:20:06;;;;;;;5.95;2.50;;;26.80;91.20;;;;;;5077991;28;20102;-47
2021/08/21 01:22:36;;;;;;;4.47;2.40;;;26.80;91.10;;;;;;5061375;28;20044;-47
2021/08/21 01:25:30;;;;;;;4.75;2.83;;;26.80;91.20;;;;;;5080811;28;20394;-48
2021/08/21 01:28:00;;;;;;;4.65;2.97;;;26.80;91.10;;;;;;5077869;28;20125;-46
2021/08/21 01:30:39;;;;;;;5.93;3.80;;;26.80;91.10;;;;;;5062914;28;20042;-47
2021/08/21 01:33:20;;;;;;;7.70;2.80;;;26.80;91.10;;;;;;5077856;28;20094;-47
2021/08/21 01:35:53;;;;;;;4.32;3.10;;;26.80;91.10;;;;;;5077835;28;20043;-46
2021/08/21 01:38:24;;;;;;;5.88;3.28;;;26.70;91.20;;;;;;5044939;28;20505;-46
2021/08/21 01:41:03;;;;;;;3.65;2.53;;;26.70;91.20;;;;;;5095858;28;20036;-46
2021/08/21 01:43:34;;;;;;;4.70;2.90;;;26.70;91.20;;;;;;5077588;28;20478;-46
2021/08/21 01:46:02;;;;;;;6.03;2.60;;;26.60;91.20;;;;;;5095778;28;20401;-46
2021/08/21 01:48:30;;;;;;;3.67;2.33;;;26.60;91.30;;;;;;5044492;28;20086;-47
2021/08/21 01:50:59;;;;;;;3.92;2.20;;;26.60;91.30;;;;;;5060691;28;20383;-46
2021/08/21 01:53:27;;;;;;;4.32;2.65;;;26.60;91.30;;;;;;5077293;28;20036;-47
2021/08/21 01:55:56;;;;;;;4.95;2.92;;;26.60;91.30;;;;;;5060922;28;20040;-47
2021/08/21 01:59:02;;;;;;;3.70;2.40;;;26.60;91.40;;;;;;5016375;28;20199;-47
2021/08/21 02:01:43;;;;;;;4.65;2.50;;;26.60;91.30;;;;;;5016341;28;20046;-46
2021/08/21 02:04:25;;;;;;;5.50;2.60;;;26.50;91.30;;;;;;5049124;28;20072;-47
2021/08/21 02:06:55;;;;;;;5.22;3.22;;;26.50;91.30;;;;;;5044415;28;20135;-46
2021/08/21 02:09:25;;;;;;;5.68;2.85;;;26.50;91.20;;;;;;5060197;28;20135;-46
2021/08/21 02:11:56;;;;;;;4.78;2.80;;;26.50;91.20;;;;;;5060574;28;20040;-47
2021/08/21 02:14:24;;;;;;;7.25;2.72;;;26.50;91.20;;;;;;5060080;28;20055;-47
2021/08/21 02:16:58;;;;;;;8.77;3.83;;;26.50;91.20;;;;;;5060307;28;20044;-47
2021/08/21 02:19:26;;;;;;;5.68;3.05;;;26.50;91.30;;;;;;5076700;28;20059;-47
2021/08/21 02:22:09;;;;;;;4.43;2.42;;;26.50;91.30;;;;;;5062410;28;20044;-47
2021/08/21 02:24:37;;;;;;;4.53;2.40;;;26.40;91.20;;;;;;5060290;28;20549;-47
2021/08/21 02:27:05;;;;;;;6.80;2.63;;;26.40;91.20;;;;;;5076672;28;20048;-47
2021/08/21 02:29:34;;;;;;;6.20;3.05;;;26.40;91.20;;;;;;5060291;28;20060;-47
2021/08/21 02:32:02;;;;;;;6.40;3.15;;;26.40;91.20;;;;;;5059820;28;20044;-46
2021/08/21 02:34:29;;;;;;;5.43;2.95;;;26.40;91.50;;;;;;5060200;28;20051;-47
2021/08/21 02:36:58;;;;;;;6.25;2.50;;;26.40;91.30;;;;;;5060049;28;20150;-46
2021/08/21 02:39:25;;;;;;;7.60;3.08;;;26.40;91.40;;;;;;5059761;28;20058;-46
2021/08/21 02:41:53;;;;;;;4.90;2.67;;;26.40;91.40;;;;;;5076687;28;20054;-46
2021/08/21 02:44:21;;;;;;;5.30;2.90;;;26.40;91.50;;;;;;5059767;28;20052;-46
2021/08/21 02:46:48;;;;;;;6.40;2.20;;;26.40;91.60;;;;;;5076272;28;20048;-47
2021/08/21 02:49:17;;;;;;;3.65;2.17;;;26.40;91.60;;;;;;5076481;28;20074;-46
2021/08/21 02:51:44;;;;;;;6.15;2.30;;;26.40;91.60;;;;;;5059299;28;20436;-48
2021/08/21 02:54:12;;;;;;;6.32;2.33;;;26.40;91.70;;;;;;5076150;28;20036;-46
2021/08/21 02:56:40;;;;;;;5.45;3.05;;;26.40;91.70;;;;;;5076102;28;20036;-47
2021/08/21 02:59:08;;;;;;;5.95;3.20;;;26.40;91.70;;;;;;5075612;28;20044;-47
2021/08/21 03:01:36;;;;;;;3.80;2.58;;;26.40;91.70;;;;;;5076254;28;20036;-46
2021/08/21 03:04:05;;;;;;;3.90;2.00;;;26.40;91.70;;;;;;5076136;28;20042;-48
2021/08/21 03:06:33;;;;;;;5.63;2.13;;;26.40;91.80;;;;;;5075846;28;20497;-47
2021/08/21 03:09:03;;;;;;;5.30;3.03;;;26.40;91.80;;;;;;5076222;28;20435;-47
2021/08/21 03:11:31;;;;;;;3.88;2.40;;;26.30;91.90;;;;;;5042808;28;20044;-47
2021/08/21 03:14:24;;;;;;;5.43;2.53;;;26.40;92.00;;;;;;5075966;28;20040;-47
2021/08/21 03:16:52;;;;;;;3.65;2.35;;;26.40;92.10;;;;;;5075881;28;20048;-47
2021/08/21 03:19:20;;;;;;;4.68;2.35;;;26.40;92.10;;;;;;5075990;28;20574;-47
2021/08/21 03:21:48;;;;;;;5.30;2.80;;;26.40;92.10;;;;;;5059437;28;20506;-47
2021/08/21 03:24:19;;;;;;;3.95;2.13;;;26.40;92.10;;;;;;5059114;28;20040;-47
2021/08/21 03:26:48;;;;;;;4.10;2.40;;;26.40;92.10;;;;;;5059006;28;20044;-47
2021/08/21 03:29:17;;;;;;;5.43;2.83;;;26.40;92.10;;;;;;5042749;28;20432;-47
2021/08/21 03:31:45;;;;;;;4.90;2.47;;;26.40;92.20;;;;;;5058902;28;20044;-47
2021/08/21 03:34:14;;;;;;;5.38;2.83;;;26.40;92.20;;;;;;5059416;28;20476;-47
2021/08/21 03:36:41;;;;;;;4.03;2.20;;;26.40;92.30;;;;;;5075731;28;20043;-46
2021/08/21 03:39:09;;;;;;;3.95;1.85;;;26.40;92.30;;;;;;5075576;28;20054;-47
2021/08/21 03:41:37;;;;;;;5.95;2.30;;;26.30;92.30;;;;;;5058752;28;20044;-48
2021/08/21 03:44:04;;;;;;;3.97;2.05;;;26.30;92.30;;;;;;5075446;28;20044;-51
2021/08/21 03:46:35;;;;;;;4.95;2.35;;;26.30;92.60;;;;;;5075597;28;20040;-47
2021/08/21 03:49:04;;;;;;;2.80;2.10;;;26.30;92.40;;;;;;5075740;28;20047;-46
2021/08/21 03:51:32;;;;;;;3.50;2.35;;;26.30;92.50;;;;;;5075686;28;20048;-47
2021/08/21 03:54:01;;;;;;;3.88;1.90;;;26.30;92.60;;;;;;5058979;28;20143;-47
2021/08/21 03:56:30;;;;;;;5.80;2.13;;;26.30;92.60;;;;;;5058925;28;20044;-47
2021/08/21 03:59:04;;;;;;;5.95;2.28;;;26.30;92.70;;;;;;5059851;28;20043;-47
2021/08/21 04:01:35;;;;;;;4.97;2.28;;;26.30;92.70;;;;;;5075605;28;20032;-47
2021/08/21 04:04:10;;;;;;;6.32;2.88;;;26.30;92.70;;;;;;5058698;28;20052;-46
2021/08/21 04:06:41;;;;;;;6.35;2.30;;;26.30;92.70;;;;;;5075418;28;20123;-46
2021/08/21 04:09:14;;;;;;;7.13;2.40;;;26.30;92.70;;;;;;5043236;28;20501;-46
2021/08/21 04:11:42;;;;;;;5.32;2.17;;;26.30;92.70;;;;;;5060705;28;20040;-46
2021/08/21 04:14:14;;;;;;;3.95;1.95;;;26.30;92.70;;;;;;5079953;28;20043;-47
2021/08/21 04:16:43;;;;;;;7.40;2.25;;;26.30;92.70;;;;;;5079175;28;20108;-46
2021/08/21 04:19:11;;;;;;;4.05;2.13;;;26.30;92.70;;;;;;5079107;28;20497;-46
2021/08/21 04:21:41;;;;;;;4.65;1.90;;;26.30;92.70;;;;;;5062825;28;20505;-46
2021/08/21 04:24:16;;;;;;;5.88;2.80;;;26.30;92.70;;;;;;5079165;28;20048;-46
2021/08/21 04:26:47;;;;;;;4.18;2.85;;;26.30;92.70;;;;;;5062334;28;20048;-46
2021/08/21 04:29:15;;;;;;;4.50;2.38;;;26.20;92.80;;;;;;5061787;28;20056;-46
2021/08/21 04:31:43;;;;;;;5.45;2.28;;;26.30;92.80;;;;;;5078910;28;20074;-47
2021/08/21 04:34:11;;;;;;;4.13;2.15;;;26.20;92.90;;;;;;5062341;28;20058;-46
2021/08/21 04:36:38;;;;;;;5.55;2.70;;;26.30;92.90;;;;;;5078792;28;20040;-46
2021/08/21 04:39:09;;;;;;;5.68;2.80;;;26.30;92.90;;;;;;5062001;28;20052;-46
2021/08/21 04:41:37;;;;;;;4.55;2.63;;;26.40;92.90;;;;;;5062454;28;20039;-46
2021/08/21 04:44:04;;;;;;;4.38;2.45;;;26.40;92.80;;;;;;5078765;28;20044;-48
2021/08/21 04:46:34;;;;;;;5.32;2.20;;;26.40;92.80;;;;;;5061966;28;20050;-46
2021/08/21 04:49:03;;;;;;;5.35;1.90;;;26.50;92.80;;;;;;5062361;28;20072;-46
2021/08/21 04:51:32;;;;;;;5.25;2.40;;;26.60;92.70;;;;;;5061834;28;20044;-45
2021/08/21 04:54:03;;;;;;;6.38;2.78;;;26.70;92.60;;;;;;5078558;28;20040;-45
2021/08/21 04:56:31;;;;;;;5.47;2.50;;;26.90;92.50;;;;;;5061970;28;20055;-46
2021/08/21 04:59:31;;;;;;;5.55;3.13;;;27.00;92.40;;;;;;5050092;28;20059;-46
2021/08/21 05:02:03;;;;;;;5.63;2.67;;;27.10;92.20;;;;;;5045683;28;20040;-46
2021/08/21 05:04:31;;;;;;;5.55;3.53;;;27.20;92.00;;;;;;5078723;28;20044;-46
2021/08/21 05:06:59;;;;;;;3.88;2.45;;;27.40;92.20;;;;;;5061518;28;20044;-45
2021/08/21 05:09:28;;;;;;;4.78;2.00;;;27.50;91.80;;;;;;5078121;28;20126;-46
2021/08/21 05:12:00;;;;;;;5.15;2.80;;;27.60;91.60;;;;;;5045682;28;20097;-46
2021/08/21 05:14:34;;;;;;;4.75;2.20;;;27.80;91.50;;;;;;5078413;28;20052;-46
2021/08/21 05:17:05;;;;;;;5.53;3.00;;;27.90;91.30;;;;;;5044836;28;20040;-46
2021/08/21 05:19:53;;;;;;;4.45;2.47;;;28.10;91.20;;;;;;5080655;28;20131;-45
2021/08/21 05:25:13;;;;;;;5.25;3.08;;;28.40;90.90;;;;;;5077932;28;20509;-45
2021/08/21 05:27:42;;;;;;;5.95;2.80;;;28.50;90.70;;;;;;5077722;28;20511;-46
2021/08/21 05:30:10;;;;;;;5.40;2.70;;;28.60;90.60;;;;;;5077920;28;20051;-46
2021/08/21 05:32:38;;;;;;;5.93;2.70;;;28.70;90.50;;;;;;5077751;28;20047;-46
2021/08/21 05:35:06;;;;;;;7.05;3.38;;;28.80;90.40;;;;;;5077657;28;20082;-46
2021/08/21 05:37:34;;;;;;;5.95;3.05;;;28.90;90.20;;;;;;5061268;28;20048;-46
2021/08/21 05:40:01;;;;;;;4.72;3.38;;;29.00;90.00;;;;;;5077579;28;20036;-46
2021/08/21 05:42:30;;;;;;;5.93;2.88;;;29.20;89.70;;;;;;5095390;28;20062;-46
2021/08/21 05:44:58;;;;;;;4.35;2.28;;;29.40;89.50;;;;;;5077463;28;20040;-46
2021/08/21 05:47:25;;;;;;;5.00;2.72;;;29.40;89.50;;;;;;5077477;28;20044;-48
2021/08/21 05:49:54;;;;;;;6.63;2.85;;;29.50;89.40;;;;;;5077673;28;20432;-46
2021/08/21 05:52:21;;;;;;;4.60;2.83;;;29.70;89.50;;;;;;5060550;28;20040;-46
2021/08/21 05:54:50;;;;;;;6.35;2.60;;;29.80;89.40;;;;;;5077460;28;20040;-46
2021/08/21 05:57:29;;;;;;;4.30;2.70;;;29.90;89.10;;;;;;5077305;28;20044;-46
2021/08/21 05:59:56;;;;;;;4.38;3.15;;;30.00;88.50;;;;;;5077189;28;20044;-47
2021/08/21 06:02:25;;;;;;;4.18;2.50;;;30.10;88.30;;;;;;5095255;28;20050;-46
2021/08/21 06:04:53;;;;;;;6.05;2.40;;;30.20;87.80;;;;;;5077489;28;20036;-46
2021/08/21 06:07:20;;;;;;;5.70;2.58;;;30.30;87.30;;;;;;5060535;28;20044;-46
2021/08/21 06:09:48;;;;;;;3.92;2.50;;;30.40;87.00;;;;;;5077082;28;20038;-46
2021/08/21 06:12:16;;;;;;;6.85;3.42;;;30.50;87.10;;;;;;5060572;28;20050;-46
2021/08/21 06:14:44;;;;;;;4.93;2.67;;;30.60;86.30;;;;;;5060265;28;20075;-46
2021/08/21 06:17:12;;;;;;;6.15;3.17;;;30.60;86.20;;;;;;5077138;28;20051;-46
2021/08/21 06:19:39;;;;;;;9.50;3.85;;;30.70;86.20;;;;;;5076689;28;20044;-48
2021/08/21 06:22:07;;;;;;;7.93;3.17;;;30.90;86.20;;;;;;5094811;28;20040;-46
2021/08/21 06:24:35;;;;;;;6.30;2.90;;;31.00;86.20;;;;;;5076920;28;20039;-47
2021/08/21 06:27:03;;;;;;;5.10;2.75;;;31.10;86.00;;;;;;5076788;28;20047;-46
2021/08/21 06:29:35;;;;;;;4.63;2.65;;;31.20;85.70;;;;;;5059919;28;20044;-46
2021/08/21 06:32:04;;;;;;;6.13;2.75;;;31.30;85.30;;;;;;5060357;28;20513;-46
2021/08/21 06:34:36;;;;;;;4.85;2.78;;;31.40;85.30;;;;;;5059017;28;20100;-47
2021/08/21 06:37:08;;;;;;;5.25;2.38;;;31.50;85.00;;;;;;5060105;28;20125;-47
2021/08/21 06:39:35;;;;;;;4.07;2.25;;;31.60;84.70;;;;;;5076443;28;20044;-46
2021/08/21 06:42:04;;;;;;;4.82;2.25;;;31.80;84.60;;;;;;5094461;28;20058;-46
2021/08/21 06:44:32;;;;;;;5.15;2.60;;;31.90;84.30;;;;;;5076380;28;20044;-46
2021/08/21 06:47:00;;;;;;;5.05;2.40;;;31.90;84.00;;;;;;5076576;28;20119;-46
2021/08/21 06:49:28;;;;;;;5.50;2.78;;;31.90;83.30;;;;;;5059446;28;20067;-47
2021/08/21 06:51:56;;;;;;;5.57;2.70;;;32.00;82.90;;;;;;5076354;28;20138;-46
2021/08/21 06:54:26;;;;;;;5.25;2.35;;;32.00;82.80;;;;;;5060023;28;20581;-47
2021/08/21 06:56:55;;;;;;;4.90;2.67;;;32.10;83.10;;;;;;5094254;28;20093;-47
2021/08/21 06:59:22;;;;;;;5.72;2.08;;;32.20;83.10;;;;;;5076333;28;20044;-47
2021/08/21 07:01:50;;;;;;;4.78;2.50;;;32.20;82.60;;;;;;5094043;28;20130;-47
2021/08/21 07:04:18;;;;;;;8.05;2.60;;;32.20;82.40;;;;;;5094155;28;20098;-46
2021/08/21 07:06:45;;;;;;;6.93;2.50;;;32.20;82.40;;;;;;5076025;28;20044;-46
2021/08/21 07:09:13;;;;;;;4.63;2.30;;;32.20;82.00;;;;;;5093991;28;20446;-48
2021/08/21 07:11:41;;;;;;;7.47;2.67;;;32.10;81.80;;;;;;5076207;28;20153;-47
2021/08/21 07:14:08;;;;;;;4.10;2.13;;;32.00;81.50;;;;;;5075953;28;20557;-47
2021/08/21 07:16:36;;;;;;;5.47;2.40;;;32.10;81.10;;;;;;5075664;28;20044;-48
2021/08/21 07:19:05;;;;;;;3.13;2.10;;;32.00;80.70;;;;;;5075916;28;20040;-47
2021/08/21 07:21:33;;;;;;;2.65;1.55;;;32.00;80.50;;;;;;5076155;28;20044;-47
2021/08/21 07:24:01;;;;;;;4.55;1.80;;;31.90;80.80;;;;;;5042982;28;20043;-47
2021/08/21 07:26:29;;;;;;;3.75;2.25;;;32.00;80.50;;;;;;5093667;28;20066;-47
2021/08/21 07:28:57;;;;;;;3.17;1.83;;;32.20;80.00;;;;;;5075650;28;20052;-47
2021/08/21 07:31:24;;;;;;;5.53;2.00;;;32.40;77.90;;;;;;5076068;28;20052;-47
2021/08/21 07:33:52;;;;;;;4.97;2.05;;;32.40;77.40;;;;;;5059032;28;20040;-47
2021/08/21 07:36:20;;;;;;;5.88;2.10;;;32.40;78.60;;;;;;5093637;28;20064;-47
2021/08/21 07:38:47;;;;;;;4.00;2.00;;;32.40;78.70;;;;;;5076036;28;20486;-48
2021/08/21 07:41:15;;;;;;;4.15;2.05;;;32.50;78.60;;;;;;5093483;28;20520;-49
2021/08/21 07:43:43;;;;;;;4.22;2.53;;;32.50;79.20;;;;;;5075806;28;20063;-51
2021/08/21 07:46:10;;;;;;;4.72;2.65;;;32.60;78.80;;;;;;5078626;28;20044;-52
2021/08/21 07:48:38;;;;;;;4.88;2.20;;;32.70;79.10;;;;;;5079927;28;20048;-52
2021/08/21 07:51:06;;;;;;;3.10;2.08;;;32.90;79.30;;;;;;5078048;28;20048;-48
2021/08/21 07:53:33;;;;;;;4.03;2.38;;;33.00;79.00;;;;;;5078835;28;20126;-51
2021/08/21 07:56:06;;;;;;;3.78;2.10;;;33.10;78.50;;;;;;5077306;28;20514;-51
2021/08/21 07:58:33;;;;;;;4.70;2.60;;;33.20;78.50;;;;;;5079243;28;20130;-49
2021/08/21 08:01:02;;;;;;;4.65;2.03;;;33.30;78.20;;;;;;5097704;28;20397;-47
2021/08/21 08:03:29;;;;;;;3.53;2.08;;;33.10;78.00;;;;;;5062654;28;20130;-47
2021/08/21 08:05:57;;;;;;;5.28;3.00;;;33.10;77.50;;;;;;5097427;28;20054;-50
2021/08/21 08:08:25;;;;;;;3.05;1.92;;;33.10;76.90;;;;;;5079314;28;20528;-48
2021/08/21 08:10:52;;;;;;;2.67;1.80;;;33.20;76.40;;;;;;5079015;28;20044;-48
2021/08/21 08:13:20;;;;;;;3.72;1.85;;;33.30;76.40;;;;;;5079364;28;20040;-47
2021/08/21 08:15:49;;;;;;;3.88;1.88;;;33.40;75.60;;;;;;5062597;28;20048;-50
2021/08/21 08:18:17;;;;;;;12.40;2.33;;;33.50;75.30;;;;;;5097233;28;20054;-48
2021/08/21 08:20:45;;;;;;;4.00;2.00;;;33.50;75.30;;;;;;5062249;28;20044;-47
2021/08/21 08:23:12;;;;;;;4.57;2.20;;;33.50;75.70;;;;;;5079027;28;20040;-47
2021/08/21 08:25:40;;;;;;;4.47;1.77;;;33.50;75.80;;;;;;5079012;28;20398;-47
2021/08/21 08:28:07;;;;;;;3.75;2.15;;;33.50;75.10;;;;;;5078678;28;20084;-50
2021/08/21 08:30:35;;;;;;;4.00;2.30;;;33.70;74.90;;;;;;5078828;28;20048;-52
2021/08/21 08:33:03;;;;;;;3.78;1.92;;;33.70;74.50;;;;;;5079028;28;20043;-48
2021/08/21 08:35:31;;;;;;;4.65;2.05;;;33.70;74.70;;;;;;5078842;28;20059;-49
2021/08/21 08:38:01;;;;;;;10.23;3.25;;;33.60;75.10;;;;;;5096653;28;20448;-47
2021/08/21 08:40:28;;;;;;;3.92;2.08;;;33.50;75.60;;;;;;5079018;28;20078;-48
2021/08/21 08:43:02;;;;;;;4.60;2.28;;;33.60;75.60;;;;;;5096780;28;20389;-48
2021/08/21 08:45:30;;;;;;;4.72;2.30;;;33.70;75.50;;;;;;5061775;28;20067;-47
2021/08/21 08:47:58;;;;;;;3.75;2.47;;;33.70;75.50;;;;;;5078742;28;20043;-52
2021/08/21 08:50:29;;;;;;;3.95;2.25;;;33.70;75.40;;;;;;5096734;28;20074;-48
2021/08/21 08:52:56;;;;;;;3.55;1.90;;;33.70;75.20;;;;;;5061933;28;20043;-47
2021/08/21 08:55:24;;;;;;;2.15;1.50;;;33.60;75.10;;;;;;5061942;28;20143;-47
2021/08/21 08:57:53;;;;;;;4.13;1.98;;;33.50;74.80;;;;;;5078033;28;20089;-48
2021/08/21 09:00:24;;;;;;;4.10;1.73;;;33.40;74.80;;;;;;5078613;28;20493;-49
2021/08/21 09:02:54;;;;;;;4.72;1.65;;;33.40;74.70;;;;;;5061077;28;20044;-50
2021/08/21 09:05:24;;;;;;;4.93;2.00;;;33.20;75.60;;;;;;5098045;28;20054;-48
2021/08/21 09:07:56;;;;;;;3.15;1.90;;;33.30;74.80;;;;;;5116409;28;20051;-48
2021/08/21 09:10:29;;;;;;;6.57;2.22;;;33.30;74.70;;;;;;5081221;28;20135;-60
2021/08/21 09:13:02;;;;;;;3.47;1.88;;;33.30;74.90;;;;;;5116215;28;20043;-47
2021/08/21 09:15:31;;;;;;;5.22;1.95;;;33.20;75.00;;;;;;5081458;28;20043;-48
2021/08/21 09:18:08;;;;;;;4.53;2.47;;;33.40;75.10;;;;;;5081088;28;20047;-49
2021/08/21 09:20:49;;;;;;;6.68;2.45;;;33.20;74.90;;;;;;5081509;28;20040;-50
2021/08/21 09:23:31;;;;;;;4.05;2.03;;;33.10;75.50;;;;;;5098157;28;20128;-48
2021/08/21 09:26:30;;;;;;;5.22;2.10;;;33.00;75.60;;;;;;5098347;28;20100;-47
2021/08/21 09:28:59;;;;;;;5.63;2.30;;;33.00;75.30;;;;;;5097770;28;20086;-51
2021/08/21 09:31:33;;;;;;;3.92;1.95;;;33.10;74.90;;;;;;5080771;28;20142;-48
2021/08/21 09:34:07;;;;;;;4.38;2.28;;;33.30;74.60;;;;;;5097615;28;20044;-48
2021/08/21 09:36:41;;;;;;;3.83;1.88;;;33.40;73.90;;;;;;5097657;28;20089;-53
2021/08/21 09:39:11;;;;;;;3.85;1.90;;;33.30;74.00;;;;;;5115786;28;20039;-50
2021/08/21 09:41:59;;;;;;;4.88;2.25;;;33.30;74.60;;;;;;5064169;28;20093;-48
2021/08/21 09:44:36;;;;;;;3.30;2.13;;;33.30;75.20;;;;;;5080035;28;20047;-51
2021/08/21 09:47:14;;;;;;;4.35;1.85;;;33.30;75.40;;;;;;5097508;28;20043;-51
2021/08/21 09:49:43;;;;;;;4.72;2.03;;;33.50;75.50;;;;;;5115795;28;20493;-51
2021/08/21 09:52:14;;;;;;;3.17;1.98;;;33.60;74.80;;;;;;5080306;28;20121;-56
2021/08/21 09:55:04;;;;;;;3.67;2.28;;;33.60;75.10;;;;;;5097228;28;20490;-55
2021/08/21 09:57:32;;;;;;;7.88;3.38;;;33.50;74.70;;;;;;5097416;28;20088;-51
2021/08/21 10:00:01;;;;;;;6.03;2.95;;;33.50;75.00;;;;;;5097495;28;20045;-54
2021/08/21 10:02:42;;;;;;;5.50;2.30;;;33.50;74.90;;;;;;5081477;28;20048;-51
2021/08/21 10:05:10;;;;;;;4.43;2.47;;;33.50;74.60;;;;;;5080093;28;20100;-60
2021/08/21 10:07:43;;;;;;;3.70;1.92;;;33.40;74.50;;;;;;5097041;28;20519;-58
2021/08/21 10:10:16;;;;;;;5.30;2.40;;;33.20;74.60;;;;;;5114499;28;20617;-59
2021/08/21 10:12:46;;;;;;;5.53;2.40;;;33.20;74.80;;;;;;5114968;28;20413;-59
2021/08/21 10:15:14;;;;;;;9.80;4.28;;;33.20;74.90;;;;;;5079345;28;20071;-60
2021/08/21 10:17:44;;;;;;;4.63;2.45;;;33.30;75.10;;;;;;5096941;28;20050;-59
2021/08/21 10:20:13;;;;;;;4.65;2.20;;;33.30;74.80;;;;;;5097113;28;20085;-59
2021/08/21 10:22:42;;;;;;;6.13;3.00;;;33.30;74.70;;;;;;5114516;28;20051;-59
2021/08/21 10:25:11;;;;;;;5.57;2.70;;;33.20;74.90;;;;;;5096715;28;20060;-58
2021/08/21 10:27:42;;;;;;;5.40;2.22;;;33.10;75.30;;;;;;5079378;28;20035;-60
2021/08/21 10:30:17;;;;;;;4.05;1.60;;;33.20;75.50;;;;;;5079064;28;20509;-59
2021/08/21 10:33:02;;;;;;;17.48;7.93;;;33.20;75.30;;;;;;5079508;28;20058;-60
2021/08/21 10:35:51;;;;;;;10.15;5.75;;;33.20;75.30;;;;;;5114584;28;20077;-60
2021/08/21 10:38:32;;;;;;;5.78;3.15;;;33.20;75.60;;;;;;5079581;28;20040;-60
2021/08/21 10:41:09;;;;;;;7.75;4.32;;;33.30;75.70;;;;;;5080034;28;20054;-60
2021/08/21 10:43:55;;;;;;;4.15;2.08;;;33.30;75.60;;;;;;5096456;28;20036;-60
2021/08/21 10:46:31;;;;;;;4.07;2.15;;;33.20;75.80;;;;;;5113937;28;20071;-60
2021/08/21 10:49:08;;;;;;;3.83;2.40;;;33.30;76.10;;;;;;5095276;28;20046;-61
2021/08/21 10:51:40;;;;;;;5.18;2.03;;;33.30;76.30;;;;;;5113253;28;20504;-61
2021/08/21 10:54:26;;;;;;;6.45;2.85;;;33.20;75.60;;;;;;5078143;28;20044;-62
2021/08/21 10:57:18;;;;;;;6.00;2.20;;;33.10;75.30;;;;;;5079268;28;20047;-60
2021/08/21 10:59:47;;;;;;;4.85;2.10;;;33.10;75.30;;;;;;5095119;28;20118;-61
2021/08/21 11:02:21;;;;;;;6.70;4.13;;;33.10;75.40;;;;;;5078591;28;20043;-61
2021/08/21 11:04:49;;;;;;;7.00;3.03;;;33.00;75.90;;;;;;5078537;28;20525;-60
2021/08/21 11:07:40;;;;;;;5.38;2.85;;;32.90;76.20;;;;;;5095718;28;20040;-61
2021/08/21 11:10:22;;;;;;;4.30;2.05;;;33.00;75.90;;;;;;5095240;28;20159;-61
2021/08/21 11:12:53;;;;;;;5.03;2.00;;;32.90;75.80;;;;;;5113869;28;20561;-61
2021/08/21 11:15:32;;;;;;;4.45;2.15;;;32.90;75.50;;;;;;5078187;28;20051;-61
2021/08/21 11:18:00;;;;;;;6.68;2.97;;;32.90;76.10;;;;;;5065594;28;20172;-61
2021/08/21 11:20:29;;;;;;;19.85;9.10;;;33.00;76.20;;;;;;5057351;28;20105;-61
2021/08/21 11:23:06;;;;;;;5.80;3.25;;;33.10;76.40;;;;;;5058057;28;20131;-61
2021/08/21 11:25:39;;;;;;;3.63;2.30;;;33.10;75.90;;;;;;5075150;28;20044;-61
2021/08/21 11:28:10;;;;;;;4.60;2.50;;;33.10;75.20;;;;;;5049074;28;20057;-61
2021/08/21 11:30:39;;;;;;;5.35;2.30;;;33.10;75.50;;;;;;5051470;28;20079;-61
2021/08/21 11:33:08;;;;;;;3.92;2.00;;;33.10;74.70;;;;;;5052819;28;20102;-61
2021/08/21 11:35:45;;;;;;;3.95;2.00;;;33.10;75.20;;;;;;5051278;28;20132;-61
2021/08/21 11:38:16;;;;;;;6.70;2.13;;;33.10;75.00;;;;;;5051372;28;20037;-61
2021/08/21 11:40:48;;;;;;;4.15;2.25;;;33.10;74.70;;;;;;5050913;28;20049;-61
2021/08/21 11:43:19;;;;;;;5.10;1.85;;;33.00;74.40;;;;;;5051475;28;20045;-61
2021/08/21 11:45:47;;;;;;;2.90;2.25;;;32.90;73.90;;;;;;5051513;28;20037;-62
2021/08/21 11:48:15;;;;;;;3.53;1.95;;;32.90;73.80;;;;;;5051672;28;20159;-61
2021/08/21 11:50:48;;;;;;;5.18;2.20;;;32.90;73.90;;;;;;5051388;28;20037;-61
2021/08/21 11:53:21;;;;;;;4.32;1.98;;;32.80;73.90;;;;;;5034348;28;20053;-61
2021/08/21 11:55:51;;;;;;;4.70;2.10;;;32.80;73.40;;;;;;5052060;28;20087;-61
2021/08/21 11:58:49;;;;;;;4.18;2.22;;;32.70;73.30;;;;;;5034923;28;20045;-61
2021/08/21 12:01:21;;;;;;;3.78;2.25;;;32.60;71.80;;;;;;5050773;28;20091;-61
2021/08/21 12:06:27;;;;;;;5.70;2.55;;;32.50;71.90;;;;;;5052283;28;20053;-62
2021/08/21 12:09:15;;;;;;;3.40;1.95;;;32.60;69.60;;;;;;5052521;28;20045;-61
2021/08/21 12:11:45;;;;;;;4.05;2.35;;;32.50;69.20;;;;;;5033645;28;20047;-61
2021/08/21 12:14:15;;;;;;;5.13;2.00;;;32.50;68.80;;;;;;5052140;28;20063;-61
2021/08/21 12:16:43;;;;;;;8.30;2.10;;;32.40;69.20;;;;;;5051840;28;20049;-61
2021/08/21 12:19:11;;;;;;;5.47;2.00;;;32.60;70.00;;;;;;5052114;28;20043;-61
2021/08/21 12:21:40;;;;;;;5.20;2.90;;;32.50;70.00;;;;;;5035384;28;20064;-61
2021/08/21 12:24:09;;;;;;;4.07;2.25;;;32.50;69.40;;;;;;5051845;28;20091;-61
2021/08/21 12:26:44;;;;;;;5.07;2.30;;;32.40;71.30;;;;;;5052088;28;20478;-61
2021/08/21 12:29:24;;;;;;;3.80;2.08;;;32.30;69.70;;;;;;5081859;28;20421;-61
2021/08/21 12:31:53;;;;;;;4.20;2.10;;;32.30;70.00;;;;;;5076372;28;20482;-59
2021/08/21 12:34:26;;;;;;;3.50;2.08;;;32.40;68.20;;;;;;5095793;28;20492;-59
2021/08/21 12:36:59;;;;;;;4.32;2.30;;;32.30;69.10;;;;;;5096960;28;20374;-58
2021/08/21 12:39:28;;;;;;;3.67;2.20;;;32.20;69.20;;;;;;5078928;28;20048;-57
2021/08/21 12:42:05;;;;;;;4.85;2.67;;;32.10;69.10;;;;;;5062327;28;20366;-58
2021/08/21 12:44:38;;;;;;;5.80;3.55;;;32.10;69.20;;;;;;5078883;28;20046;-54
2021/08/21 12:47:11;;;;;;;6.75;3.63;;;32.10;70.30;;;;;;5062249;28;20135;-58
2021/08/21 12:49:44;;;;;;;9.82;3.70;;;32.00;69.80;;;;;;5062067;28;20089;-58
2021/08/21 12:52:13;;;;;;;14.90;5.32;;;32.00;71.20;;;;;;5097041;28;20428;-58
2021/08/21 12:54:42;;;;;;;5.93;3.60;;;32.00;73.20;;;;;;5062029;28;20040;-58
2021/08/21 12:57:14;;;;;;;5.30;3.03;;;32.00;74.80;;;;;;5078791;28;20044;-59
2021/08/21 12:59:43;;;;;;;7.05;2.88;;;31.90;73.20;;;;;;5078929;28;20474;-58
2021/08/21 13:02:14;;;;;;;3.65;2.60;;;31.90;74.70;;;;;;5061708;28;20036;-59
2021/08/21 13:04:44;;;;;;;5.18;2.40;;;31.80;73.80;;;;;;5061666;28;20044;-58
2021/08/21 13:07:12;;;;;;;6.63;3.65;;;31.90;74.10;;;;;;5096489;28;20043;-59
2021/08/21 13:09:40;;;;;;;5.07;2.70;;;31.80;74.00;;;;;;5078418;28;20047;-59